createdAt,value
2023-08-16T00:00:43.763Z,15.75
2023-08-16T00:03:56.601Z,15.68
2023-08-16T00:07:09.365Z,14.13
2023-08-16T00:10:22.073Z,17.02
2023-08-16T00:13:34.601Z,18.23
2023-08-16T00:16:47.819Z,16.90
2023-08-16T00:20:00.236Z,15.32
2023-08-16T00:23:12.978Z,17.30
2023-08-16T00:26:25.392Z,15.52
2023-08-16T00:29:38.075Z,17.23
2023-08-16T00:32:50.543Z,18.17
2023-08-16T00:36:03.768Z,18.77
2023-08-16T00:39:16.217Z,19.55
2023-08-16T00:42:28.844Z,19.08
2023-08-16T00:45:41.206Z,19.35
2023-08-16T00:48:54.213Z,14.48
2023-08-16T00:52:06.706Z,15.55
2023-08-16T00:55:19.412Z,17.10
2023-08-16T00:58:31.859Z,14.63
2023-08-16T01:01:46.519Z,15.15
2023-08-16T01:04:59.033Z,14.85
2023-08-16T01:08:11.739Z,15.88
2023-08-16T01:11:34.939Z,14.63
2023-08-16T01:14:57.774Z,14.27
2023-08-16T01:18:10.848Z,13.45
2023-08-16T01:21:23.537Z,14.25
2023-08-16T01:27:58.128Z,20.95
2023-08-16T01:31:12.059Z,16.05
2023-08-16T01:34:26.437Z,20.63
2023-08-16T01:37:38.839Z,17.17
2023-08-16T01:40:57.693Z,18.35
2023-08-16T01:44:10.215Z,20.15
2023-08-16T01:47:23.232Z,23.10
2023-08-16T01:50:35.797Z,20.17
2023-08-16T01:53:53.403Z,21.77
2023-08-16T01:57:06.157Z,18.67
2023-08-16T02:00:18.896Z,27.52
2023-08-16T02:03:32.802Z,22.15
2023-08-16T02:06:45.556Z,21.73
2023-08-16T02:09:57.952Z,21.62
2023-08-16T02:13:10.696Z,26.83
2023-08-16T02:16:24.666Z,19.02
2023-08-16T02:19:37.485Z,19.98
2023-08-16T02:22:49.888Z,21.60
2023-08-16T02:26:02.554Z,18.00
2023-08-16T02:29:15.028Z,14.43
2023-08-16T02:32:27.692Z,16.33
2023-08-16T02:35:40.132Z,16.65
2023-08-16T02:38:52.843Z,18.85
2023-08-16T02:42:05.346Z,17.08
2023-08-16T02:45:18.449Z,18.33
2023-08-16T02:48:31.532Z,16.33
2023-08-16T02:51:44.237Z,18.77
2023-08-16T02:54:56.643Z,16.10
2023-08-16T02:58:09.366Z,17.77
2023-08-16T03:01:22.434Z,16.08
2023-08-16T03:04:40.181Z,14.70
2023-08-16T03:07:53.244Z,19.30
2023-08-16T03:11:06.329Z,18.27
2023-08-16T03:14:18.814Z,16.37
2023-08-16T03:17:31.538Z,18.95
2023-08-16T03:20:44.393Z,17.75
2023-08-16T03:23:57.268Z,17.25
2023-08-16T03:27:10.165Z,21.15
2023-08-16T03:30:22.939Z,19.80
2023-08-16T03:33:36.918Z,22.65
2023-08-16T03:36:49.666Z,15.73
2023-08-16T03:40:02.108Z,15.10
2023-08-16T03:43:14.819Z,16.02
2023-08-16T03:46:27.239Z,16.40
2023-08-16T03:49:39.928Z,17.62
2023-08-16T03:52:52.717Z,16.33
2023-08-16T03:56:05.480Z,19.40
2023-08-16T03:59:19.016Z,15.95
2023-08-16T04:02:31.728Z,20.75
2023-08-16T04:05:44.453Z,17.50
2023-08-16T04:08:56.840Z,20.23
2023-08-16T04:12:09.555Z,20.52
2023-08-16T04:15:21.990Z,16.10
2023-08-16T04:18:35.963Z,16.40
2023-08-16T04:21:48.372Z,20.17
2023-08-16T04:25:01.058Z,16.25
2023-08-16T04:28:14.253Z,16.75
2023-08-16T04:31:27.353Z,21.17
2023-08-16T04:34:40.048Z,19.55
2023-08-16T04:37:52.836Z,18.77
2023-08-16T04:41:05.506Z,18.40
2023-08-16T04:44:18.246Z,19.67
2023-08-16T04:47:31.401Z,18.08
2023-08-16T04:50:45.575Z,18.42
2023-08-16T04:53:58.214Z,18.92
2023-08-16T04:57:10.937Z,21.83
2023-08-16T05:00:24.393Z,24.02
2023-08-16T05:03:37.384Z,17.83
2023-08-16T05:06:49.830Z,19.40
2023-08-16T05:10:03.054Z,19.83
2023-08-16T05:13:16.385Z,18.65
2023-08-16T05:16:29.350Z,17.15
2023-08-16T05:19:42.386Z,17.00
2023-08-16T05:22:55.057Z,17.62
2023-08-16T05:26:07.500Z,18.52
2023-08-16T05:29:20.323Z,15.50
2023-08-16T05:32:33.152Z,17.73
2023-08-16T05:35:45.892Z,18.02
2023-08-16T05:38:58.287Z,18.90
2023-08-16T05:42:11.022Z,19.00
2023-08-16T05:45:24.180Z,14.40
2023-08-16T05:48:36.980Z,15.65
2023-08-16T05:51:51.449Z,19.17
2023-08-16T05:55:04.351Z,15.82
2023-08-16T05:58:16.772Z,17.33
2023-08-16T06:01:29.510Z,15.05
2023-08-16T06:04:42.195Z,17.52
2023-08-16T06:07:55.405Z,13.68
2023-08-16T06:11:09.842Z,13.60
2023-08-16T06:14:23.561Z,14.70
2023-08-16T06:17:38.593Z,13.10
2023-08-16T06:20:51.083Z,13.30
2023-08-16T06:24:05.329Z,12.95
2023-08-16T06:27:17.766Z,14.13
2023-08-16T06:30:30.629Z,16.65
2023-08-16T06:33:43.092Z,12.43
2023-08-16T06:36:58.975Z,14.38
2023-08-16T06:40:12.041Z,14.30
2023-08-16T06:43:24.961Z,15.68
2023-08-16T06:46:37.409Z,16.23
2023-08-16T06:49:50.139Z,13.77
2023-08-16T06:53:02.606Z,14.43
2023-08-16T06:56:15.338Z,14.75
2023-08-16T06:59:28.338Z,17.73
2023-08-16T07:02:42.296Z,16.37
2023-08-16T07:05:55.394Z,15.88
2023-08-16T07:09:08.105Z,18.10
2023-08-16T07:12:20.631Z,16.15
2023-08-16T07:15:33.312Z,17.80
2023-08-16T07:18:46.710Z,16.50
2023-08-16T07:21:59.445Z,15.95
2023-08-16T07:25:12.558Z,15.90
2023-08-16T07:28:26.192Z,15.98
2023-08-16T07:31:38.598Z,15.30
2023-08-16T07:34:51.550Z,16.60
2023-08-16T07:38:04.802Z,14.18
2023-08-16T07:41:17.514Z,17.87
2023-08-16T07:44:29.936Z,17.92
2023-08-16T07:47:43.472Z,16.50
2023-08-16T07:50:55.988Z,23.98
2023-08-16T07:54:08.630Z,16.80
2023-08-16T07:57:20.998Z,16.75
2023-08-16T08:00:33.913Z,14.02
2023-08-16T08:03:47.886Z,17.27
2023-08-16T08:07:00.395Z,17.12
2023-08-16T08:10:13.206Z,15.48
2023-08-16T08:13:26.456Z,15.95
2023-08-16T08:16:39.108Z,14.98
2023-08-16T08:19:51.606Z,13.88
2023-08-16T08:23:05.020Z,16.65
2023-08-16T08:26:17.779Z,15.63
2023-08-16T08:29:32.665Z,14.57
2023-08-16T08:32:45.113Z,15.98
2023-08-16T08:35:58.392Z,16.08
2023-08-16T08:39:10.894Z,20.60
2023-08-16T08:42:23.802Z,15.02
2023-08-16T08:45:36.678Z,17.33
2023-08-16T08:48:49.497Z,14.18
2023-08-16T08:52:05.997Z,19.40
2023-08-16T08:55:19.612Z,14.98
2023-08-16T08:58:32.127Z,13.98
2023-08-16T09:01:45.466Z,18.98
2023-08-16T09:04:59.798Z,19.30
2023-08-16T09:08:14.825Z,16.85
2023-08-16T09:11:27.245Z,15.63
2023-08-16T09:14:39.929Z,16.52
2023-08-16T09:17:52.402Z,20.17
2023-08-16T09:21:05.155Z,16.05
2023-08-16T09:24:17.534Z,13.77
2023-08-16T09:27:32.576Z,17.40
2023-08-16T09:30:44.956Z,15.10
2023-08-16T09:34:00.204Z,14.75
2023-08-16T09:37:13.868Z,18.65
2023-08-16T09:40:26.806Z,18.77
2023-08-16T09:43:39.224Z,12.75
2023-08-16T09:50:07.775Z,16.33
2023-08-16T09:53:36.425Z,14.95
2023-08-16T10:00:08.843Z,16.73
2023-08-16T10:03:26.313Z,16.52
2023-08-16T10:06:39.911Z,16.20
2023-08-16T10:09:52.397Z,15.70
2023-08-16T10:13:05.084Z,17.27
2023-08-16T10:16:17.565Z,13.77
2023-08-16T10:19:34.427Z,12.80
2023-08-16T10:22:48.158Z,13.80
2023-08-16T10:26:00.927Z,13.62
2023-08-16T10:32:30.203Z,14.13
2023-08-16T10:35:42.700Z,16.00
2023-08-16T10:38:59.269Z,17.80
2023-08-16T10:42:14.477Z,14.52
2023-08-16T10:48:46.579Z,12.65
2023-08-16T10:51:59.283Z,14.20
2023-08-16T10:55:15.514Z,14.20
2023-08-16T10:58:29.796Z,16.62
2023-08-16T11:01:49.503Z,19.42
2023-08-16T11:05:02.567Z,16.37
2023-08-16T11:08:16.527Z,14.32
2023-08-16T11:11:29.242Z,13.98
2023-08-16T11:14:41.598Z,13.18
2023-08-16T11:18:07.340Z,14.98
2023-08-16T11:21:21.869Z,12.68
2023-08-16T11:24:35.026Z,17.48
2023-08-16T11:27:47.404Z,15.23
2023-08-16T11:31:04.341Z,14.80
2023-08-16T11:34:19.438Z,12.32
2023-08-16T11:37:32.149Z,13.88
2023-08-16T11:40:48.738Z,13.43
2023-08-16T11:44:01.657Z,14.07
2023-08-16T11:47:14.099Z,13.00
2023-08-16T11:50:27.980Z,15.02
2023-08-16T11:53:40.433Z,13.65
2023-08-16T11:56:53.135Z,14.82
2023-08-16T12:00:06.765Z,15.57
2023-08-16T12:03:19.151Z,18.15
2023-08-16T12:06:32.593Z,12.82
2023-08-16T12:09:45.020Z,12.52
2023-08-16T12:12:57.941Z,13.10
2023-08-16T12:16:10.453Z,14.57
2023-08-16T12:19:23.455Z,14.32
2023-08-16T12:22:35.926Z,12.18
2023-08-16T12:25:48.731Z,13.48
2023-08-16T12:29:01.084Z,11.52
2023-08-16T12:32:13.721Z,14.70
2023-08-16T12:35:26.210Z,10.40
2023-08-16T12:38:40.253Z,12.00
2023-08-16T12:41:53.470Z,13.05
2023-08-16T12:45:06.800Z,14.32
2023-08-16T12:48:19.557Z,14.48
2023-08-16T12:51:32.410Z,13.00
2023-08-16T12:54:44.786Z,10.77
2023-08-16T12:58:03.280Z,13.60
2023-08-16T13:01:19.401Z,10.35
2023-08-16T13:04:36.698Z,13.48
2023-08-16T13:07:50.752Z,11.80
2023-08-16T13:14:30.074Z,19.65
2023-08-16T13:17:50.107Z,14.35
2023-08-16T13:27:44.905Z,9.38
2023-08-16T13:31:06.114Z,10.88
2023-08-16T13:37:44.430Z,8.82
2023-08-16T13:47:54.390Z,9.50
2023-08-16T13:51:07.087Z,11.70
2023-08-16T13:54:19.465Z,10.70
2023-08-16T13:57:32.139Z,10.15
2023-08-16T14:00:44.793Z,11.77
2023-08-16T14:03:58.544Z,10.88
2023-08-16T14:07:10.943Z,12.93
2023-08-16T14:10:25.628Z,13.35
2023-08-16T14:13:38.024Z,9.88
2023-08-16T14:16:50.768Z,10.85
2023-08-16T14:20:03.213Z,12.85
2023-08-16T14:23:16.189Z,13.10
2023-08-16T14:26:28.607Z,12.77
2023-08-16T14:29:41.264Z,9.65
2023-08-16T14:32:53.625Z,11.27
2023-08-16T14:36:06.372Z,12.52
2023-08-16T14:39:20.081Z,17.65
2023-08-16T14:42:32.857Z,9.93
2023-08-16T14:45:45.518Z,11.80
2023-08-16T14:48:58.248Z,11.45
2023-08-16T14:52:10.649Z,11.98
2023-08-16T14:55:26.577Z,10.65
2023-08-16T14:58:42.220Z,10.52
2023-08-16T15:05:07.231Z,12.65
2023-08-16T15:08:20.307Z,9.80
2023-08-16T15:11:33.086Z,11.70
2023-08-16T15:14:45.767Z,11.63
2023-08-16T15:17:58.310Z,12.07
2023-08-16T15:21:10.996Z,14.95
2023-08-16T15:24:23.402Z,14.20
2023-08-16T15:27:36.035Z,11.70
2023-08-16T15:30:54.450Z,11.93
2023-08-16T15:34:07.168Z,15.00
2023-08-16T15:37:20.401Z,12.25
2023-08-16T15:40:38.112Z,12.15
2023-08-16T15:43:50.515Z,9.90
2023-08-16T15:47:03.179Z,9.32
2023-08-16T15:50:15.598Z,12.32
2023-08-16T15:53:28.328Z,14.45
2023-08-16T15:56:40.711Z,11.23
2023-08-16T15:59:53.372Z,11.65
2023-08-16T16:03:06.015Z,14.95
2023-08-16T16:06:18.762Z,13.15
2023-08-16T16:09:31.139Z,13.52
2023-08-16T16:12:43.840Z,12.90
2023-08-16T16:15:56.372Z,11.50
2023-08-16T16:19:09.085Z,11.50
2023-08-16T16:22:21.488Z,12.40
2023-08-16T16:25:34.319Z,10.25
2023-08-16T16:28:46.788Z,15.15
2023-08-16T16:31:59.416Z,11.45
2023-08-16T16:35:11.897Z,11.05
2023-08-16T16:38:24.704Z,10.85
2023-08-16T16:41:37.096Z,13.90
2023-08-16T16:44:51.685Z,11.20
2023-08-16T16:48:05.789Z,11.88
2023-08-16T16:51:18.594Z,13.32
2023-08-16T16:54:30.960Z,10.57
2023-08-16T16:57:43.600Z,12.95
2023-08-16T17:00:57.085Z,10.32
2023-08-16T17:04:09.837Z,13.77
2023-08-16T17:07:22.211Z,12.57
2023-08-16T17:10:34.858Z,13.38
2023-08-16T17:13:47.211Z,12.43
2023-08-16T17:17:00.633Z,12.68
2023-08-16T17:20:13.510Z,13.35
2023-08-16T17:23:26.274Z,12.13
2023-08-16T17:26:38.643Z,13.32
2023-08-16T17:29:51.381Z,12.63
2023-08-16T17:33:04.065Z,13.13
2023-08-16T17:36:20.844Z,10.75
2023-08-16T17:39:33.201Z,13.20
2023-08-16T17:42:46.294Z,16.20
2023-08-16T17:45:58.711Z,16.92
2023-08-16T17:49:11.476Z,9.70
2023-08-16T17:52:23.868Z,10.35
2023-08-16T17:55:36.533Z,10.93
2023-08-16T17:58:48.918Z,8.93
2023-08-16T18:02:01.924Z,8.82
2023-08-16T18:05:15.047Z,9.70
2023-08-16T18:08:27.589Z,8.73
2023-08-16T18:11:40.327Z,8.00
2023-08-16T18:14:52.719Z,10.85
2023-08-16T18:18:06.754Z,14.20
2023-08-16T18:21:19.201Z,9.07
2023-08-16T18:24:33.858Z,8.43
2023-08-16T18:27:46.497Z,12.27
2023-08-16T18:30:59.428Z,14.63
2023-08-16T18:34:12.156Z,9.82
2023-08-16T18:37:25.074Z,8.52
2023-08-16T18:40:37.594Z,10.00
2023-08-16T18:43:50.513Z,9.40
2023-08-16T18:47:02.940Z,10.43
2023-08-16T18:50:18.036Z,11.88
2023-08-16T18:53:30.413Z,9.68
2023-08-16T18:56:43.098Z,10.15
2023-08-16T18:59:55.501Z,12.00
2023-08-16T19:03:08.160Z,8.60
2023-08-16T19:06:20.535Z,9.05
2023-08-16T19:09:33.230Z,8.95
2023-08-16T19:12:45.607Z,8.93
2023-08-16T19:15:58.319Z,9.10
2023-08-16T19:19:10.790Z,9.85
2023-08-16T19:22:24.542Z,9.85
2023-08-16T19:25:36.969Z,11.12
2023-08-16T19:28:49.611Z,10.93
2023-08-16T19:32:02.044Z,12.40
2023-08-16T19:35:16.353Z,12.02
2023-08-16T19:38:28.922Z,14.48
2023-08-16T19:41:41.600Z,12.40
2023-08-16T19:44:54.108Z,11.25
2023-08-16T19:48:07.030Z,13.20
2023-08-16T19:51:19.443Z,16.27
2023-08-16T19:54:32.119Z,19.08
2023-08-16T19:57:44.494Z,13.25
2023-08-16T20:00:57.228Z,13.10
2023-08-16T20:04:09.912Z,15.27
2023-08-16T20:07:22.697Z,15.18
2023-08-16T20:10:35.761Z,15.55
2023-08-16T20:13:48.098Z,13.70
2023-08-16T20:17:00.886Z,12.32
2023-08-16T20:20:13.336Z,14.38
2023-08-16T20:23:26.050Z,14.75
2023-08-16T20:26:38.460Z,12.93
2023-08-16T20:29:51.120Z,13.65
2023-08-16T20:33:03.699Z,14.05
2023-08-16T20:36:16.419Z,15.55
2023-08-16T20:39:28.826Z,12.85
2023-08-16T20:42:41.713Z,15.75
2023-08-16T20:45:54.138Z,12.43
2023-08-16T20:49:12.503Z,14.02
2023-08-16T20:52:24.888Z,16.85
2023-08-16T20:55:37.578Z,12.82
2023-08-16T20:58:49.937Z,13.57
2023-08-16T21:02:02.595Z,12.82
2023-08-16T21:05:15.060Z,13.73
2023-08-16T21:08:27.780Z,13.85
2023-08-16T21:11:40.216Z,13.35
2023-08-16T21:14:53.084Z,12.70
2023-08-16T21:18:05.742Z,13.25
2023-08-16T21:21:18.422Z,14.55
2023-08-16T21:24:30.987Z,14.87
2023-08-16T21:27:43.756Z,13.62
2023-08-16T21:30:56.724Z,12.68
2023-08-16T21:34:10.865Z,12.50
2023-08-16T21:37:23.555Z,14.15
2023-08-16T21:40:36.976Z,13.27
2023-08-16T21:43:49.403Z,12.88
2023-08-16T21:47:02.077Z,11.95
2023-08-16T21:50:14.479Z,12.90
2023-08-16T21:53:27.137Z,15.80
2023-08-16T21:56:39.627Z,12.93
2023-08-16T21:59:52.359Z,11.12
2023-08-16T22:03:05.092Z,12.25
2023-08-16T22:06:17.903Z,12.27
2023-08-16T22:09:30.352Z,14.87
2023-08-16T22:12:43.020Z,13.20
2023-08-16T22:15:55.524Z,13.20
2023-08-16T22:19:08.245Z,16.02
2023-08-16T22:22:20.602Z,13.45
2023-08-16T22:25:33.257Z,12.93
2023-08-16T22:28:52.916Z,11.27
2023-08-16T22:32:06.027Z,12.27
2023-08-16T22:35:18.396Z,14.68
2023-08-16T22:38:31.047Z,17.52
2023-08-16T22:41:43.449Z,14.43
2023-08-16T22:44:56.106Z,12.37
2023-08-16T22:48:08.633Z,15.40
2023-08-16T22:51:21.294Z,13.10
2023-08-16T22:54:33.715Z,13.85
2023-08-16T22:57:46.606Z,13.88
2023-08-16T23:00:59.074Z,11.80
2023-08-16T23:04:11.808Z,13.48
2023-08-16T23:07:24.608Z,16.52
2023-08-16T23:10:41.507Z,13.43
2023-08-16T23:13:53.937Z,16.25
2023-08-16T23:17:06.650Z,13.68
2023-08-16T23:20:19.189Z,16.20
2023-08-16T23:23:31.913Z,16.10
2023-08-16T23:26:44.300Z,16.75
2023-08-16T23:29:56.964Z,17.35
2023-08-16T23:33:09.514Z,16.55
2023-08-16T23:36:22.275Z,14.00
2023-08-16T23:39:34.649Z,14.55
2023-08-16T23:42:47.473Z,17.73
2023-08-16T23:45:59.922Z,19.15
2023-08-16T23:49:12.587Z,16.23
2023-08-16T23:52:25.040Z,13.45
2023-08-16T23:55:39.441Z,15.95
2023-08-16T23:58:51.830Z,18.30
